createdAt,value
2022-10-28T00:01:32.812Z,19.50
2022-10-28T00:04:34.787Z,18.80
2022-10-28T00:07:36.537Z,17.40
2022-10-28T00:13:40.999Z,19.00
2022-10-28T00:16:42.905Z,19.40
2022-10-28T00:19:44.710Z,19.40
2022-10-28T00:22:46.618Z,20.60
2022-10-28T00:25:48.344Z,21.20
2022-10-28T00:28:52.943Z,20.90
2022-10-28T00:31:55.897Z,20.90
2022-10-28T00:34:58.145Z,22.50
2022-10-28T00:37:59.954Z,23.80
2022-10-28T00:41:01.695Z,22.80
2022-10-28T00:44:42.353Z,21.00
2022-10-28T00:47:52.706Z,18.70
2022-10-28T00:50:55.280Z,21.10
2022-10-28T00:53:57.375Z,20.90
2022-10-28T00:57:00.505Z,21.40
2022-10-28T01:00:04.729Z,20.80
2022-10-28T01:03:06.821Z,21.20
2022-10-28T01:06:08.842Z,21.60
2022-10-28T01:09:10.631Z,20.70
2022-10-28T01:12:40.058Z,20.80
2022-10-28T01:16:16.926Z,20.80
2022-10-28T01:19:40.246Z,22.20
2022-10-28T01:22:54.269Z,18.80
2022-10-28T01:26:33.983Z,19.90
2022-10-28T01:30:11.198Z,19.50
2022-10-28T01:33:34.915Z,19.30
2022-10-28T01:36:51.714Z,18.00
2022-10-28T01:40:00.014Z,16.30
2022-10-28T01:43:46.341Z,18.00
2022-10-28T01:46:54.815Z,17.80
2022-10-28T01:50:04.718Z,17.60
2022-10-28T01:53:10.844Z,17.40
2022-10-28T01:56:16.657Z,19.80
2022-10-28T01:59:22.790Z,17.50
2022-10-28T02:02:25.109Z,19.80
2022-10-28T02:05:41.077Z,18.90
2022-10-28T02:08:42.888Z,19.60
2022-10-28T02:11:53.778Z,20.40
2022-10-28T02:15:16.985Z,19.40
2022-10-28T02:18:40.276Z,18.80
2022-10-28T02:21:57.495Z,20.40
2022-10-28T02:25:22.450Z,20.60
2022-10-28T02:28:45.060Z,23.80
2022-10-28T02:31:54.562Z,24.60
2022-10-28T02:34:58.878Z,23.40
2022-10-28T02:38:03.747Z,21.40
2022-10-28T02:41:17.732Z,21.60
2022-10-28T02:44:25.270Z,22.80
2022-10-28T02:47:29.247Z,22.70
2022-10-28T02:50:34.509Z,21.10
2022-10-28T02:53:54.888Z,20.40
2022-10-28T02:57:01.949Z,19.00
2022-10-28T03:00:10.319Z,22.20
2022-10-28T03:03:12.889Z,19.10
2022-10-28T03:06:14.691Z,22.60
2022-10-28T03:09:16.934Z,21.80
2022-10-28T03:12:18.722Z,22.10
2022-10-28T03:15:20.663Z,22.30
2022-10-28T03:18:22.443Z,23.30
2022-10-28T03:21:24.232Z,22.90
2022-10-28T03:24:27.266Z,22.70
2022-10-28T03:27:29.611Z,22.20
2022-10-28T03:30:31.339Z,20.20
2022-10-28T03:36:34.822Z,20.20
2022-10-28T03:42:41.366Z,20.10
2022-10-28T03:45:43.417Z,19.40
2022-10-28T03:48:45.168Z,20.30
2022-10-28T03:54:48.598Z,35.50
2022-10-28T04:00:53.035Z,26.00
2022-10-28T04:03:54.723Z,32.40
2022-10-28T04:09:58.224Z,29.40
2022-10-28T04:13:04.231Z,28.60
2022-10-28T04:16:06.455Z,29.50
2022-10-28T04:19:08.496Z,31.90
2022-10-28T04:22:10.290Z,31.00
2022-10-28T04:25:12.135Z,29.00
2022-10-28T04:28:14.296Z,28.80
2022-10-28T04:31:16.186Z,24.60
2022-10-28T04:34:17.920Z,26.30
2022-10-28T04:37:20.763Z,25.00
2022-10-28T04:40:22.618Z,27.20
2022-10-28T04:43:24.394Z,25.40
2022-10-28T04:46:26.273Z,25.90
2022-10-28T04:49:28.203Z,25.30
2022-10-28T04:52:30.158Z,25.30
2022-10-28T04:55:32.047Z,25.60
2022-10-28T04:58:33.768Z,26.40
2022-10-28T05:04:37.331Z,26.60
2022-10-28T05:10:40.845Z,23.80
2022-10-28T05:13:42.652Z,24.80
2022-10-28T05:16:44.421Z,28.40
2022-10-28T05:19:46.215Z,27.80
2022-10-28T05:22:50.391Z,28.60
2022-10-28T05:25:52.614Z,25.80
2022-10-28T05:28:54.468Z,27.40
2022-10-28T05:31:56.329Z,28.90
2022-10-28T05:34:58.221Z,29.90
2022-10-28T05:38:00.128Z,28.90
2022-10-28T05:41:02.069Z,33.20
2022-10-28T05:44:03.971Z,32.60
2022-10-28T05:47:05.719Z,32.20
2022-10-28T05:50:07.746Z,31.50
2022-10-28T05:53:09.467Z,28.90
2022-10-28T05:59:12.862Z,26.30
2022-10-28T06:05:17.181Z,25.90
2022-10-28T06:08:19.079Z,27.40
2022-10-28T06:11:19.178Z,26.70
2022-10-28T06:17:22.670Z,24.10
2022-10-28T06:20:24.486Z,27.80
2022-10-28T06:23:27.687Z,28.20
2022-10-28T06:26:29.356Z,28.40
2022-10-28T06:29:32.305Z,29.70
2022-10-28T06:32:33.953Z,28.80
2022-10-28T06:35:35.573Z,29.40
2022-10-28T06:38:37.393Z,27.80
2022-10-28T06:44:40.683Z,26.30
2022-10-28T06:50:45.644Z,24.40
2022-10-28T06:56:52.317Z,23.60
2022-10-28T07:02:56.995Z,26.50
2022-10-28T07:05:59.471Z,25.90
2022-10-28T07:09:01.242Z,25.30
2022-10-28T07:12:05.023Z,25.00
2022-10-28T07:15:08.149Z,25.70
2022-10-28T07:18:10.027Z,25.00
2022-10-28T07:21:14.044Z,25.10
2022-10-28T07:24:15.694Z,24.70
2022-10-28T07:27:17.420Z,24.00
2022-10-28T07:30:19.004Z,22.20
2022-10-28T07:33:20.930Z,23.20
2022-10-28T07:36:22.672Z,20.90
2022-10-28T07:39:24.688Z,21.70
2022-10-28T07:42:26.407Z,21.50
2022-10-28T07:45:28.332Z,20.20
2022-10-28T07:48:29.971Z,21.20
2022-10-28T07:51:31.801Z,20.20
2022-10-28T07:54:33.392Z,19.80
2022-10-28T07:57:35.345Z,22.20
2022-10-28T08:00:37.180Z,22.30
2022-10-28T08:03:39.346Z,22.60
2022-10-28T08:06:41.282Z,23.00
2022-10-28T08:09:43.049Z,24.40
2022-10-28T08:12:46.308Z,23.90
2022-10-28T08:15:55.127Z,22.90
2022-10-28T08:19:01.134Z,25.30
2022-10-28T08:22:06.881Z,22.70
2022-10-28T08:25:09.286Z,23.50
2022-10-28T08:28:11.038Z,23.80
2022-10-28T08:31:12.714Z,22.80
2022-10-28T08:34:14.511Z,21.20
2022-10-28T08:37:16.419Z,21.40
2022-10-28T08:40:20.882Z,22.10
2022-10-28T08:44:00.887Z,20.20
2022-10-28T08:47:14.792Z,20.40
2022-10-28T08:50:18.424Z,19.20
2022-10-28T08:53:26.056Z,17.90
2022-10-28T08:56:32.043Z,16.50
2022-10-28T08:59:39.371Z,14.70
2022-10-28T09:03:10.023Z,15.60
2022-10-28T09:06:11.826Z,14.70
2022-10-28T09:09:19.656Z,15.20
2022-10-28T09:12:34.340Z,13.90
2022-10-28T09:15:56.022Z,12.60
2022-10-28T09:18:59.233Z,12.90
2022-10-28T09:22:28.714Z,12.20
2022-10-28T09:25:48.716Z,12.70
2022-10-28T09:29:21.177Z,11.80
2022-10-28T09:32:43.854Z,12.00
2022-10-28T09:35:47.458Z,10.30
2022-10-28T09:38:51.879Z,13.40
2022-10-28T09:41:53.971Z,12.50
2022-10-28T09:44:59.888Z,11.70
2022-10-28T09:48:05.735Z,11.70
2022-10-28T09:51:27.958Z,13.00
2022-10-28T09:54:35.439Z,11.60
2022-10-28T09:57:37.096Z,12.20
2022-10-28T10:00:39.661Z,10.80
2022-10-28T10:03:41.908Z,10.40
2022-10-28T10:06:48.550Z,11.10
2022-10-28T10:09:50.498Z,9.90
2022-10-28T10:12:55.958Z,10.90
2022-10-28T10:16:02.536Z,9.80
2022-10-28T10:19:06.649Z,10.30
2022-10-28T10:22:08.359Z,9.60
2022-10-28T10:25:18.971Z,8.90
2022-10-28T10:28:21.538Z,10.30
2022-10-28T10:31:26.182Z,10.40
2022-10-28T10:34:30.143Z,9.90
2022-10-28T10:37:34.758Z,8.80
2022-10-28T10:40:52.907Z,8.60
2022-10-28T10:43:54.607Z,8.50
2022-10-28T10:47:16.534Z,8.20
2022-10-28T10:50:23.170Z,8.50
2022-10-28T10:53:28.236Z,8.00
2022-10-28T10:56:31.606Z,8.10
2022-10-28T10:59:34.994Z,8.10
2022-10-28T11:02:39.810Z,7.60
2022-10-28T11:05:55.146Z,7.80
2022-10-28T11:09:17.611Z,8.10
2022-10-28T11:12:31.967Z,7.80
2022-10-28T11:15:33.695Z,7.60
2022-10-28T11:18:43.959Z,7.40
2022-10-28T11:21:55.388Z,7.70
2022-10-28T11:25:15.306Z,7.80
2022-10-28T11:28:30.027Z,8.20
2022-10-28T11:31:48.266Z,7.80
2022-10-28T11:35:20.588Z,7.70
2022-10-28T11:38:45.863Z,7.90
2022-10-28T11:42:00.852Z,7.80
2022-10-28T11:45:26.694Z,8.10
2022-10-28T11:48:47.100Z,8.10
2022-10-28T11:52:00.528Z,7.90
2022-10-28T11:55:31.459Z,7.60
2022-10-28T11:58:53.247Z,8.30
2022-10-28T12:02:36.860Z,8.30
2022-10-28T12:05:51.216Z,8.60
2022-10-28T12:09:01.625Z,8.60
2022-10-28T12:12:06.003Z,8.80
2022-10-28T12:15:39.154Z,8.40
2022-10-28T12:19:16.356Z,8.20
2022-10-28T12:22:34.152Z,8.40
2022-10-28T12:25:36.885Z,8.10
2022-10-28T12:28:43.990Z,8.40
2022-10-28T12:31:49.199Z,7.60
2022-10-28T12:34:56.434Z,8.60
2022-10-28T12:38:02.792Z,8.40
2022-10-28T12:41:16.215Z,8.40
2022-10-28T12:44:20.448Z,8.20
2022-10-28T12:47:25.754Z,9.00
2022-10-28T12:50:48.798Z,9.00
2022-10-28T12:54:17.273Z,9.80
2022-10-28T12:57:21.411Z,9.40
2022-10-28T13:00:28.702Z,8.40
2022-10-28T13:03:30.464Z,7.70
2022-10-28T13:09:52.447Z,7.70
2022-10-28T13:13:14.566Z,6.50
2022-10-28T13:16:53.651Z,6.70
2022-10-28T13:20:03.296Z,6.40
2022-10-28T13:23:33.361Z,6.00
2022-10-28T13:26:36.825Z,6.80
2022-10-28T13:29:40.551Z,6.10
2022-10-28T13:32:42.689Z,6.20
2022-10-28T13:35:44.630Z,6.30
2022-10-28T13:39:00.806Z,6.50
2022-10-28T13:42:19.581Z,6.20
2022-10-28T13:45:44.559Z,5.80
2022-10-28T13:48:46.793Z,6.60
2022-10-28T13:51:51.342Z,7.00
2022-10-28T13:54:55.149Z,6.70
2022-10-28T13:58:23.587Z,6.90
2022-10-28T14:01:56.529Z,6.50
2022-10-28T14:05:11.316Z,6.60
2022-10-28T14:08:28.458Z,6.90
2022-10-28T14:11:32.642Z,7.10
2022-10-28T14:14:34.377Z,6.20
2022-10-28T14:17:41.188Z,7.00
2022-10-28T14:20:48.763Z,6.90
2022-10-28T14:24:07.460Z,6.60
2022-10-28T14:27:09.430Z,7.10
2022-10-28T14:30:16.717Z,7.50
2022-10-28T14:33:22.203Z,7.20
2022-10-28T14:36:53.327Z,7.30
2022-10-28T14:40:07.816Z,7.70
2022-10-28T14:43:30.620Z,8.30
2022-10-28T14:46:39.454Z,11.90
2022-10-28T14:49:42.051Z,10.00
2022-10-28T14:52:44.382Z,8.40
2022-10-28T14:55:47.837Z,9.40
2022-10-28T14:58:50.364Z,11.10
2022-10-28T15:02:17.500Z,11.30
2022-10-28T15:05:21.348Z,9.80
2022-10-28T15:08:24.748Z,11.10
2022-10-28T15:11:26.462Z,8.60
2022-10-28T15:14:33.569Z,8.90
2022-10-28T15:17:42.491Z,8.00
2022-10-28T15:20:44.142Z,7.90
2022-10-28T15:23:47.479Z,9.40
2022-10-28T15:26:54.502Z,9.60
2022-10-28T15:29:56.338Z,9.80
2022-10-28T15:33:26.984Z,13.20
2022-10-28T15:36:28.799Z,24.40
2022-10-28T15:39:30.491Z,26.90
2022-10-28T15:43:01.163Z,27.10
2022-10-28T15:46:10.919Z,32.10
2022-10-28T15:49:37.713Z,23.30
2022-10-28T15:52:52.403Z,20.20
2022-10-28T15:56:17.158Z,19.60
2022-10-28T15:59:23.808Z,12.90
2022-10-28T16:02:42.417Z,13.50
2022-10-28T16:05:45.434Z,14.90
2022-10-28T16:08:47.792Z,28.10
2022-10-28T16:11:51.865Z,16.90
2022-10-28T16:14:55.377Z,19.60
2022-10-28T16:17:57.397Z,12.80
2022-10-28T16:20:59.854Z,15.90
2022-10-28T16:24:02.937Z,13.90
2022-10-28T16:27:21.135Z,15.30
2022-10-28T16:33:37.355Z,21.50
2022-10-28T16:36:39.049Z,17.80
2022-10-28T16:39:40.658Z,22.00
2022-10-28T16:42:43.161Z,32.10
2022-10-28T16:45:44.740Z,27.00
2022-10-28T16:48:46.716Z,29.90
2022-10-28T16:51:48.383Z,48.90
2022-10-28T16:54:51.068Z,28.30
2022-10-28T16:57:52.994Z,28.00
2022-10-28T17:00:55.891Z,24.60
2022-10-28T17:03:57.533Z,16.00
2022-10-28T17:06:59.308Z,15.90
2022-10-28T17:10:00.995Z,15.40
2022-10-28T17:13:03.305Z,16.80
2022-10-28T17:16:05.328Z,15.30
2022-10-28T17:19:06.980Z,14.90
2022-10-28T17:22:10.291Z,47.10
2022-10-28T17:25:12.427Z,45.20
2022-10-28T17:28:14.017Z,43.40
2022-10-28T17:31:19.217Z,25.70
2022-10-28T17:34:24.036Z,26.00
2022-10-28T17:37:25.774Z,28.90
2022-10-28T17:40:27.457Z,33.20
2022-10-28T17:43:29.079Z,38.10
2022-10-28T17:46:31.486Z,32.90
2022-10-28T17:49:34.395Z,36.80
2022-10-28T17:52:38.523Z,36.50
2022-10-28T17:55:42.124Z,32.70
2022-10-28T17:58:44.041Z,26.40
2022-10-28T18:01:45.711Z,28.40
2022-10-28T18:04:47.665Z,21.70
2022-10-28T18:07:49.331Z,25.00
2022-10-28T18:10:55.248Z,24.30
2022-10-28T18:13:57.076Z,26.40
2022-10-28T18:16:58.776Z,30.10
2022-10-28T18:20:02.170Z,32.30
2022-10-28T18:23:04.137Z,26.10
2022-10-28T18:26:07.981Z,24.80
2022-10-28T18:29:10.204Z,23.10
2022-10-28T18:32:12.134Z,23.30
2022-10-28T18:35:13.786Z,21.20
2022-10-28T18:38:15.628Z,22.10
2022-10-28T18:41:22.268Z,22.10
2022-10-28T18:44:31.643Z,23.00
2022-10-28T18:47:34.506Z,25.10
2022-10-28T18:50:36.136Z,31.70
2022-10-28T18:53:46.412Z,24.30
2022-10-28T18:56:49.186Z,22.80
2022-10-28T19:00:17.544Z,21.90
2022-10-28T19:06:23.031Z,19.50
2022-10-28T19:09:24.623Z,21.40
2022-10-28T19:12:26.332Z,21.80
2022-10-28T19:15:28.120Z,22.40
2022-10-28T19:18:30.392Z,24.00
2022-10-28T19:21:32.176Z,21.40
2022-10-28T19:24:34.530Z,26.60
2022-10-28T19:27:36.189Z,25.20
2022-10-28T19:30:37.836Z,26.20
2022-10-28T19:33:39.636Z,24.40
2022-10-28T19:36:41.287Z,23.70
2022-10-28T19:39:42.893Z,23.60
2022-10-28T19:42:44.617Z,20.30
2022-10-28T19:45:46.425Z,20.60
2022-10-28T19:48:50.073Z,18.90
2022-10-28T19:51:51.681Z,19.40
2022-10-28T19:54:53.420Z,20.30
2022-10-28T19:57:55.857Z,22.70
2022-10-28T20:01:03.525Z,24.20
2022-10-28T20:04:05.642Z,20.80
2022-10-28T20:10:28.383Z,13.30
2022-10-28T20:13:30.302Z,12.00
2022-10-28T20:16:32.975Z,13.40
2022-10-28T20:19:34.753Z,15.90
2022-10-28T20:22:41.318Z,24.10
2022-10-28T20:25:51.804Z,24.10
2022-10-28T20:28:53.816Z,25.90
2022-10-28T20:31:55.557Z,26.20
2022-10-28T20:34:57.232Z,34.90
2022-10-28T20:37:59.275Z,27.60
2022-10-28T20:41:01.034Z,29.90
2022-10-28T20:44:03.112Z,32.60
2022-10-28T20:47:05.120Z,36.80
2022-10-28T20:50:07.817Z,49.50
2022-10-28T20:53:09.449Z,34.90
2022-10-28T20:56:24.058Z,42.40
2022-10-28T20:59:25.721Z,48.10
2022-10-28T21:02:27.937Z,43.50
2022-10-28T21:05:31.537Z,44.50
2022-10-28T21:08:33.174Z,45.20
2022-10-28T21:11:35.415Z,45.50
2022-10-28T21:14:37.161Z,50.20
2022-10-28T21:17:39.094Z,55.20
2022-10-28T21:20:40.763Z,58.30
2022-10-28T21:23:42.511Z,59.10
2022-10-28T21:26:47.202Z,60.30
2022-10-28T21:29:51.608Z,61.10
2022-10-28T21:32:53.922Z,58.40
2022-10-28T21:36:00.697Z,50.80
2022-10-28T21:39:02.387Z,46.60
2022-10-28T21:42:04.250Z,45.10
2022-10-28T21:45:07.732Z,44.30
2022-10-28T21:48:09.352Z,46.50
2022-10-28T21:51:14.789Z,53.20
2022-10-28T21:54:18.669Z,52.00
2022-10-28T21:57:20.569Z,50.30
2022-10-28T22:00:22.236Z,49.50
2022-10-28T22:03:23.944Z,50.20
2022-10-28T22:06:25.740Z,45.80
2022-10-28T22:09:27.302Z,45.70
2022-10-28T22:12:29.910Z,46.50
2022-10-28T22:15:31.745Z,46.70
2022-10-28T22:18:34.831Z,46.70
2022-10-28T22:21:40.391Z,48.40
2022-10-28T22:24:42.104Z,49.80
2022-10-28T22:27:45.014Z,51.40
2022-10-28T22:30:46.628Z,49.30
2022-10-28T22:33:48.550Z,52.80
2022-10-28T22:36:50.405Z,51.30
2022-10-28T22:39:52.032Z,49.60
2022-10-28T22:42:53.782Z,52.70
2022-10-28T22:45:57.042Z,54.20
2022-10-28T22:48:58.881Z,49.00
2022-10-28T22:52:00.791Z,49.10
2022-10-28T22:55:02.497Z,48.20
2022-10-28T22:58:04.188Z,46.30
2022-10-28T23:01:11.603Z,47.40
2022-10-28T23:04:13.358Z,45.30
2022-10-28T23:07:34.874Z,48.00
2022-10-28T23:10:50.737Z,48.40
2022-10-28T23:13:58.354Z,50.60
2022-10-28T23:17:00.020Z,42.40
2022-10-28T23:20:02.132Z,42.70
2022-10-28T23:23:04.191Z,43.80
2022-10-28T23:26:07.139Z,48.20
2022-10-28T23:29:08.831Z,46.10
2022-10-28T23:32:10.714Z,48.50
2022-10-28T23:35:12.350Z,49.40
2022-10-28T23:38:16.533Z,48.90
2022-10-28T23:41:20.902Z,45.90
2022-10-28T23:44:23.094Z,48.50
2022-10-28T23:47:24.701Z,50.10
2022-10-28T23:50:26.483Z,50.90
2022-10-28T23:53:34.051Z,50.30
2022-10-28T23:56:35.672Z,47.90
2022-10-28T23:59:37.401Z,48.40
